createdAt,value
2019-04-29T00:01:20.523Z,17.87
2019-04-29T00:03:55.671Z,18.90
2019-04-29T00:06:26.166Z,18.73
2019-04-29T00:08:57.547Z,19.60
2019-04-29T00:11:27.632Z,18.70
2019-04-29T00:13:58.630Z,18.67
2019-04-29T00:16:37.221Z,18.27
2019-04-29T00:19:09.462Z,18.32
2019-04-29T00:21:53.888Z,17.87
2019-04-29T00:24:23.503Z,18.98
2019-04-29T00:26:53.113Z,18.98
2019-04-29T00:29:22.789Z,17.60
2019-04-29T00:31:56.352Z,19.07
2019-04-29T00:37:45.098Z,18.98
2019-04-29T00:40:34.010Z,19.87
2019-04-29T00:43:27.158Z,19.10
2019-04-29T00:45:59.822Z,20.20
2019-04-29T00:48:30.468Z,19.48
2019-04-29T00:51:02.606Z,18.75
2019-04-29T00:53:38.295Z,18.57
2019-04-29T00:56:12.447Z,19.27
2019-04-29T00:58:45.960Z,19.32
2019-04-29T01:01:19.614Z,18.87
2019-04-29T01:03:55.151Z,18.75
2019-04-29T01:06:24.588Z,19.42
2019-04-29T01:08:57.585Z,19.48
2019-04-29T01:13:57.214Z,18.60
2019-04-29T01:16:27.925Z,19.20
2019-04-29T01:18:58.917Z,20.48
2019-04-29T01:21:30.699Z,20.12
2019-04-29T01:24:00.695Z,19.62
2019-04-29T01:26:48.834Z,20.08
2019-04-29T01:29:23.546Z,19.48
2019-04-29T01:31:56.336Z,20.65
2019-04-29T01:34:32.324Z,20.17
2019-04-29T01:37:02.143Z,18.62
2019-04-29T01:39:46.450Z,20.60
2019-04-29T01:42:21.741Z,20.68
2019-04-29T01:44:59.750Z,20.35
2019-04-29T01:47:35.249Z,20.65
2019-04-29T01:50:07.775Z,19.55
2019-04-29T01:52:41.576Z,20.62
2019-04-29T01:55:13.035Z,20.45
2019-04-29T01:57:49.644Z,21.02
2019-04-29T02:00:20.954Z,21.00
2019-04-29T02:02:56.835Z,20.68
2019-04-29T02:05:42.645Z,19.65
2019-04-29T02:08:12.731Z,20.43
2019-04-29T02:10:42.164Z,18.82
2019-04-29T02:13:13.252Z,19.98
2019-04-29T02:15:47.117Z,20.52
2019-04-29T02:18:17.903Z,21.48
2019-04-29T02:20:47.358Z,20.02
2019-04-29T02:23:22.887Z,19.90
2019-04-29T02:25:54.344Z,21.27
2019-04-29T02:28:23.595Z,19.60
2019-04-29T02:30:54.648Z,20.35
2019-04-29T02:33:25.034Z,20.72
2019-04-29T02:35:56.719Z,18.62
2019-04-29T02:38:39.571Z,19.77
2019-04-29T02:41:12.781Z,19.42
2019-04-29T02:43:50.271Z,20.85
2019-04-29T02:46:19.839Z,20.32
2019-04-29T02:48:51.901Z,20.72
2019-04-29T02:51:24.513Z,20.17
2019-04-29T02:53:56.274Z,19.85
2019-04-29T02:56:28.635Z,19.42
2019-04-29T02:59:00.110Z,20.02
2019-04-29T03:01:54.753Z,20.17
2019-04-29T03:04:30.344Z,19.73
2019-04-29T03:07:03.391Z,19.98
2019-04-29T03:09:35.281Z,20.50
2019-04-29T03:12:04.890Z,20.05
2019-04-29T03:14:34.831Z,19.98
2019-04-29T03:17:08.664Z,21.20
2019-04-29T03:19:39.796Z,21.20
2019-04-29T03:22:10.830Z,20.25
2019-04-29T03:24:42.205Z,20.50
2019-04-29T03:27:11.670Z,20.97
2019-04-29T03:29:41.274Z,19.73
2019-04-29T03:32:15.748Z,21.00
2019-04-29T03:34:45.318Z,21.35
2019-04-29T03:37:19.402Z,19.37
2019-04-29T03:39:51.585Z,20.12
2019-04-29T03:42:26.212Z,20.10
2019-04-29T03:44:56.768Z,21.10
2019-04-29T03:47:27.203Z,20.23
2019-04-29T03:49:56.798Z,20.20
2019-04-29T03:52:27.232Z,19.07
2019-04-29T03:54:58.760Z,19.27
2019-04-29T03:57:31.686Z,20.32
2019-04-29T04:00:08.237Z,19.67
2019-04-29T04:02:57.049Z,22.00
2019-04-29T04:05:32.234Z,20.70
2019-04-29T04:08:23.090Z,21.73
2019-04-29T04:10:53.979Z,22.37
2019-04-29T04:13:29.687Z,20.90
2019-04-29T04:16:00.661Z,22.65
2019-04-29T04:18:32.747Z,22.73
2019-04-29T04:21:05.319Z,22.37
2019-04-29T04:23:35.713Z,23.45
2019-04-29T04:26:08.073Z,23.62
2019-04-29T04:28:42.728Z,23.45
2019-04-29T04:31:12.157Z,23.50
2019-04-29T04:33:48.467Z,24.18
2019-04-29T04:36:24.272Z,24.20
2019-04-29T04:38:53.741Z,24.98
2019-04-29T04:41:28.228Z,25.10
2019-04-29T04:46:36.060Z,22.13
2019-04-29T04:49:06.551Z,23.80
2019-04-29T04:51:37.141Z,25.43
2019-04-29T04:54:09.741Z,23.80
2019-04-29T04:56:45.720Z,24.35
2019-04-29T04:59:18.644Z,24.23
2019-04-29T05:01:55.738Z,26.00
2019-04-29T05:04:24.945Z,27.00
2019-04-29T05:06:56.339Z,27.00
2019-04-29T05:09:35.098Z,28.15
2019-04-29T05:12:04.701Z,27.50
2019-04-29T05:14:35.164Z,26.95
2019-04-29T05:17:10.106Z,26.82
2019-04-29T05:19:42.964Z,28.75
2019-04-29T05:22:18.886Z,28.35
2019-04-29T05:24:51.163Z,31.07
2019-04-29T05:27:29.655Z,27.15
2019-04-29T05:30:01.938Z,26.33
2019-04-29T05:32:35.605Z,26.25
2019-04-29T05:35:11.695Z,26.73
2019-04-29T05:37:49.575Z,25.88
2019-04-29T05:40:38.732Z,26.70
2019-04-29T05:43:13.377Z,27.87
2019-04-29T05:45:50.071Z,28.52
2019-04-29T05:48:20.990Z,28.30
2019-04-29T05:50:56.479Z,29.75
2019-04-29T05:53:34.888Z,29.80
2019-04-29T05:56:05.371Z,29.10
2019-04-29T05:58:37.963Z,29.02
2019-04-29T06:01:12.384Z,29.23
2019-04-29T06:03:46.470Z,30.05
2019-04-29T06:06:15.937Z,29.20
2019-04-29T06:08:46.050Z,27.75
2019-04-29T06:11:17.707Z,27.22
2019-04-29T06:13:48.246Z,29.25
2019-04-29T06:16:21.012Z,28.67
2019-04-29T06:18:59.675Z,29.77
2019-04-29T06:21:25.008Z,26.60
2019-04-29T06:24:06.247Z,27.00
2019-04-29T06:26:36.405Z,25.90
2019-04-29T06:29:07.430Z,26.45
2019-04-29T06:31:37.746Z,24.90
2019-04-29T06:34:14.626Z,25.52
2019-04-29T06:36:48.105Z,25.62
2019-04-29T06:39:21.543Z,25.32
2019-04-29T06:41:52.642Z,25.30
2019-04-29T06:44:22.009Z,24.92
2019-04-29T06:46:56.311Z,24.02
2019-04-29T06:52:12.958Z,23.30
2019-04-29T06:54:42.403Z,23.30
2019-04-29T06:57:13.661Z,23.30
2019-04-29T06:59:47.418Z,23.12
2019-04-29T07:02:16.376Z,23.62
2019-04-29T07:04:48.252Z,23.20
2019-04-29T07:07:24.446Z,23.20
2019-04-29T07:09:57.192Z,23.70
2019-04-29T07:12:29.637Z,23.80
2019-04-29T07:15:00.878Z,22.77
2019-04-29T07:17:36.501Z,23.12
2019-04-29T07:20:05.825Z,24.27
2019-04-29T07:22:36.881Z,21.30
2019-04-29T07:25:09.686Z,22.93
2019-04-29T07:27:44.252Z,22.98
2019-04-29T07:30:20.591Z,23.47
2019-04-29T07:35:47.739Z,27.42
2019-04-29T07:38:14.560Z,25.23
2019-04-29T07:40:46.258Z,25.72
2019-04-29T07:43:19.866Z,25.62
2019-04-29T07:46:16.161Z,25.08
2019-04-29T07:49:00.904Z,24.67
2019-04-29T07:51:27.887Z,24.55
2019-04-29T07:53:57.357Z,24.00
2019-04-29T07:56:27.882Z,22.58
2019-04-29T07:59:03.000Z,25.10
2019-04-29T08:01:33.664Z,24.23
2019-04-29T08:04:03.348Z,24.80
2019-04-29T08:06:38.100Z,24.45
2019-04-29T08:09:10.496Z,25.10
2019-04-29T08:11:40.659Z,25.40
2019-04-29T08:14:11.572Z,23.95
2019-04-29T08:16:44.782Z,23.40
2019-04-29T08:19:14.756Z,24.05
2019-04-29T08:21:51.206Z,24.18
2019-04-29T08:24:25.624Z,21.70
2019-04-29T08:26:55.965Z,23.35
2019-04-29T08:29:26.108Z,23.42
2019-04-29T08:32:01.886Z,23.10
2019-04-29T08:34:27.936Z,23.57
2019-04-29T08:36:57.794Z,22.52
2019-04-29T08:39:29.337Z,23.47
2019-04-29T08:44:38.903Z,24.95
2019-04-29T08:47:23.663Z,23.57
2019-04-29T08:49:52.375Z,24.23
2019-04-29T08:52:22.172Z,24.12
2019-04-29T08:54:55.410Z,23.20
2019-04-29T08:57:25.813Z,22.60
2019-04-29T08:59:55.476Z,23.05
2019-04-29T09:02:34.448Z,21.05
2019-04-29T09:04:58.536Z,20.17
2019-04-29T09:07:28.096Z,22.02
2019-04-29T09:10:01.760Z,20.37
2019-04-29T09:12:32.071Z,19.70
2019-04-29T09:15:02.601Z,16.52
2019-04-29T09:17:33.526Z,13.08
2019-04-29T09:20:04.078Z,14.13
2019-04-29T09:22:36.204Z,13.93
2019-04-29T09:25:25.703Z,13.78
2019-04-29T09:28:17.685Z,13.88
2019-04-29T09:30:49.005Z,15.30
2019-04-29T09:33:19.043Z,16.07
2019-04-29T09:35:50.639Z,18.17
2019-04-29T09:38:20.181Z,17.62
2019-04-29T09:40:54.642Z,19.77
2019-04-29T09:43:38.875Z,19.42
2019-04-29T09:48:49.503Z,19.23
2019-04-29T09:51:22.892Z,18.85
2019-04-29T09:53:57.169Z,19.90
2019-04-29T09:56:27.857Z,21.23
2019-04-29T09:59:19.798Z,18.73
2019-04-29T10:01:54.943Z,18.82
2019-04-29T10:04:40.597Z,17.40
2019-04-29T10:07:12.188Z,15.40
2019-04-29T10:09:56.410Z,15.88
2019-04-29T10:12:15.173Z,15.95
2019-04-29T10:14:44.808Z,16.20
2019-04-29T10:17:16.713Z,15.60
2019-04-29T10:19:53.799Z,14.43
2019-04-29T10:22:23.652Z,14.20
2019-04-29T10:24:53.392Z,14.10
2019-04-29T10:27:26.766Z,13.68
2019-04-29T10:29:57.141Z,12.23
2019-04-29T10:32:27.039Z,12.75
2019-04-29T10:35:03.774Z,13.00
2019-04-29T10:37:32.669Z,13.05
2019-04-29T10:40:12.693Z,13.28
2019-04-29T10:42:48.301Z,12.80
2019-04-29T10:45:22.006Z,12.23
2019-04-29T10:47:58.415Z,11.50
2019-04-29T10:50:36.402Z,11.95
2019-04-29T10:53:15.481Z,11.73
2019-04-29T10:55:45.612Z,11.75
2019-04-29T10:58:16.658Z,10.60
2019-04-29T11:01:08.456Z,10.88
2019-04-29T11:06:12.018Z,11.12
2019-04-29T11:08:58.287Z,10.48
2019-04-29T11:11:32.676Z,10.13
2019-04-29T11:14:03.167Z,10.48
2019-04-29T11:16:46.142Z,9.73
2019-04-29T11:19:05.645Z,9.18
2019-04-29T11:21:38.987Z,9.60
2019-04-29T11:24:10.212Z,9.98
2019-04-29T11:26:44.774Z,9.48
2019-04-29T11:29:14.484Z,9.10
2019-04-29T11:31:49.080Z,9.60
2019-04-29T11:34:19.033Z,8.90
2019-04-29T11:36:48.431Z,9.48
2019-04-29T11:39:17.956Z,10.25
2019-04-29T11:41:50.033Z,9.45
2019-04-29T11:44:26.013Z,8.53
2019-04-29T11:46:54.152Z,7.95
2019-04-29T11:49:25.623Z,8.10
2019-04-29T11:52:09.292Z,8.40
2019-04-29T11:54:35.077Z,8.20
2019-04-29T11:57:08.353Z,8.03
2019-04-29T11:59:39.514Z,8.48
2019-04-29T12:02:44.244Z,7.80
2019-04-29T12:05:04.225Z,6.67
2019-04-29T12:07:32.493Z,8.40
2019-04-29T12:10:06.518Z,7.97
2019-04-29T12:12:34.851Z,7.87
2019-04-29T12:15:17.682Z,7.53
2019-04-29T12:17:48.976Z,7.72
2019-04-29T12:20:42.426Z,7.80
2019-04-29T12:23:17.358Z,7.85
2019-04-29T12:25:47.014Z,8.00
2019-04-29T12:28:19.804Z,7.87
2019-04-29T12:30:52.153Z,7.10
2019-04-29T12:33:40.674Z,6.60
2019-04-29T12:36:16.424Z,7.85
2019-04-29T12:38:49.593Z,6.80
2019-04-29T12:41:30.276Z,8.25
2019-04-29T12:44:10.395Z,7.92
2019-04-29T12:46:44.562Z,7.85
2019-04-29T12:49:15.812Z,8.88
2019-04-29T12:51:45.832Z,7.67
2019-04-29T12:54:15.807Z,8.80
2019-04-29T12:56:47.933Z,8.58
2019-04-29T12:59:19.957Z,8.18
2019-04-29T13:01:58.819Z,8.65
2019-04-29T13:04:45.132Z,8.40
2019-04-29T13:07:23.132Z,8.98
2019-04-29T13:10:02.002Z,9.25
2019-04-29T13:12:32.580Z,8.38
2019-04-29T13:15:07.918Z,8.30
2019-04-29T13:18:02.656Z,10.65
2019-04-29T13:20:23.356Z,10.43
2019-04-29T13:22:58.998Z,9.08
2019-04-29T13:25:26.874Z,9.35
2019-04-29T13:28:03.792Z,8.63
2019-04-29T13:30:28.968Z,9.48
2019-04-29T13:33:01.138Z,8.78
2019-04-29T13:35:32.808Z,8.00
2019-04-29T13:38:02.435Z,7.47
2019-04-29T13:40:37.461Z,6.83
2019-04-29T13:43:06.455Z,6.25
2019-04-29T13:45:46.992Z,5.90
2019-04-29T13:48:21.055Z,6.58
2019-04-29T13:50:53.237Z,6.12
2019-04-29T13:53:22.867Z,6.28
2019-04-29T13:56:10.326Z,7.78
2019-04-29T13:58:27.154Z,7.33
2019-04-29T14:00:59.942Z,7.78
2019-04-29T14:03:42.039Z,8.45
2019-04-29T14:06:09.168Z,8.58
2019-04-29T14:08:38.569Z,7.55
2019-04-29T14:11:08.165Z,8.40
2019-04-29T14:13:39.000Z,8.98
2019-04-29T14:16:11.983Z,9.00
2019-04-29T14:18:43.643Z,9.50
2019-04-29T14:21:14.237Z,9.85
2019-04-29T14:23:45.875Z,9.18
2019-04-29T14:26:15.414Z,9.70
2019-04-29T14:28:44.830Z,8.83
2019-04-29T14:31:18.665Z,8.35
2019-04-29T14:33:55.790Z,11.73
2019-04-29T14:36:26.360Z,11.93
2019-04-29T14:38:55.870Z,12.07
2019-04-29T14:41:26.515Z,11.50
2019-04-29T14:44:08.596Z,12.00
2019-04-29T14:46:52.150Z,12.13
2019-04-29T14:49:23.950Z,11.50
2019-04-29T14:51:53.552Z,11.28
2019-04-29T14:54:24.362Z,11.53
2019-04-29T14:56:53.929Z,10.80
2019-04-29T14:59:25.133Z,11.57
2019-04-29T15:02:01.972Z,12.73
2019-04-29T15:04:38.233Z,11.97
2019-04-29T15:07:08.088Z,11.85
2019-04-29T15:09:46.779Z,11.85
2019-04-29T15:15:04.211Z,12.90
2019-04-29T15:17:49.619Z,15.18
2019-04-29T15:20:29.643Z,16.87
2019-04-29T15:23:28.334Z,16.15
2019-04-29T15:25:53.559Z,16.97
2019-04-29T15:28:26.139Z,19.65
2019-04-29T15:30:59.592Z,19.37
2019-04-29T15:33:34.348Z,17.97
2019-04-29T15:36:01.800Z,17.73
2019-04-29T15:38:32.916Z,16.93
2019-04-29T15:41:07.460Z,17.92
2019-04-29T15:43:47.406Z,17.02
2019-04-29T15:46:24.187Z,20.57
2019-04-29T15:48:59.127Z,21.15
2019-04-29T15:51:28.921Z,23.70
2019-04-29T15:53:58.394Z,26.17
2019-04-29T15:56:29.227Z,28.35
2019-04-29T16:01:31.105Z,27.58
2019-04-29T16:04:02.679Z,27.17
2019-04-29T16:06:52.003Z,28.32
2019-04-29T16:09:50.785Z,27.50
2019-04-29T16:12:13.949Z,27.62
2019-04-29T16:14:38.444Z,28.40
2019-04-29T16:17:08.093Z,26.95
2019-04-29T16:19:37.630Z,26.57
2019-04-29T16:22:12.951Z,26.17
2019-04-29T16:24:42.156Z,23.35
2019-04-29T16:27:11.596Z,19.92
2019-04-29T16:29:46.089Z,19.98
2019-04-29T16:32:14.035Z,20.25
2019-04-29T16:34:47.029Z,19.20
2019-04-29T16:39:52.553Z,19.25
2019-04-29T16:42:21.934Z,21.10
2019-04-29T16:44:51.454Z,19.98
2019-04-29T16:47:24.667Z,21.70
2019-04-29T16:49:57.592Z,22.32
2019-04-29T16:52:25.554Z,22.80
2019-04-29T16:54:58.919Z,22.95
2019-04-29T16:57:28.078Z,35.90
2019-04-29T17:05:34.070Z,25.77
2019-04-29T17:08:09.246Z,26.87
2019-04-29T17:10:39.513Z,24.43
2019-04-29T17:13:16.712Z,24.77
2019-04-29T17:15:44.479Z,25.23
2019-04-29T17:18:13.769Z,25.15
2019-04-29T17:20:44.356Z,25.53
2019-04-29T17:23:24.107Z,25.45
2019-04-29T17:25:51.257Z,24.80
2019-04-29T17:28:34.635Z,24.37
2019-04-29T17:31:13.609Z,26.60
2019-04-29T17:33:50.200Z,25.45
2019-04-29T17:35:13.770Z,29.02
2019-04-29T17:36:23.953Z,27.13
2019-04-29T17:38:52.788Z,28.67
2019-04-29T17:41:22.409Z,27.37
2019-04-29T17:44:02.372Z,27.55
2019-04-29T17:46:51.123Z,26.17
2019-04-29T17:49:39.443Z,26.90
2019-04-29T17:52:10.580Z,24.07
2019-04-29T17:54:41.667Z,23.83
2019-04-29T17:57:28.266Z,24.75
2019-04-29T18:00:10.755Z,26.02
2019-04-29T18:02:52.551Z,24.67
2019-04-29T18:05:54.494Z,25.80
2019-04-29T18:08:27.708Z,24.43
2019-04-29T18:11:04.734Z,23.80
2019-04-29T18:13:35.351Z,23.35
2019-04-29T18:16:17.461Z,22.10
2019-04-29T18:18:49.164Z,22.17
2019-04-29T18:21:26.208Z,21.90
2019-04-29T18:24:00.375Z,20.92
2019-04-29T18:26:31.490Z,20.17
2019-04-29T18:29:05.664Z,20.00
2019-04-29T18:31:36.578Z,19.65
2019-04-29T18:34:07.112Z,19.45
2019-04-29T18:36:37.597Z,19.82
2019-04-29T18:39:09.472Z,18.95
2019-04-29T18:41:40.058Z,18.93
2019-04-29T18:44:18.896Z,17.00
2019-04-29T18:46:53.211Z,17.57
2019-04-29T18:49:16.409Z,17.95
2019-04-29T18:51:48.091Z,17.65
2019-04-29T18:54:19.682Z,19.05
2019-04-29T18:56:50.560Z,19.15
2019-04-29T18:59:25.274Z,17.52
2019-04-29T19:01:55.902Z,17.95
2019-04-29T19:04:29.941Z,17.42
2019-04-29T19:07:02.465Z,16.95
2019-04-29T19:09:35.837Z,17.15
2019-04-29T19:12:05.376Z,17.25
2019-04-29T19:14:35.425Z,17.92
2019-04-29T19:17:05.211Z,16.52
2019-04-29T19:19:35.908Z,16.42
2019-04-29T19:22:09.304Z,15.95
2019-04-29T19:27:10.007Z,15.15
2019-04-29T19:29:43.361Z,15.45
2019-04-29T19:32:13.266Z,15.40
2019-04-29T19:34:45.810Z,14.93
2019-04-29T19:37:15.950Z,14.53
2019-04-29T19:39:47.792Z,13.22
2019-04-29T19:42:28.654Z,13.38
2019-04-29T19:44:49.545Z,13.13
2019-04-29T19:47:21.845Z,12.53
2019-04-29T19:49:51.413Z,12.73
2019-04-29T19:52:30.490Z,11.85
2019-04-29T19:54:57.378Z,10.93
2019-04-29T19:57:26.486Z,16.85
2019-04-29T19:59:57.061Z,16.20
2019-04-29T20:02:27.381Z,11.70
2019-04-29T20:05:04.617Z,10.25
2019-04-29T20:07:40.960Z,10.25
2019-04-29T20:10:09.883Z,10.55
2019-04-29T20:12:40.638Z,10.50
2019-04-29T20:15:11.642Z,10.60
2019-04-29T20:17:50.034Z,10.30
2019-04-29T20:20:21.987Z,62.25
2019-04-29T20:22:51.902Z,17.50
2019-04-29T20:25:29.824Z,11.00
2019-04-29T20:28:05.498Z,11.28
2019-04-29T20:30:25.354Z,11.03
2019-04-29T20:32:56.105Z,10.18
2019-04-29T20:35:27.358Z,11.25
2019-04-29T20:40:36.275Z,9.85
2019-04-29T20:43:07.807Z,10.53
2019-04-29T20:45:36.299Z,11.28
2019-04-29T20:48:10.848Z,12.33
2019-04-29T20:50:40.731Z,11.97
2019-04-29T20:53:12.390Z,11.35
2019-04-29T20:55:46.299Z,11.90
2019-04-29T20:58:16.364Z,12.47
2019-04-29T21:00:46.241Z,12.70
2019-04-29T21:03:27.285Z,12.68
2019-04-29T21:05:50.307Z,13.35
2019-04-29T21:08:19.843Z,13.43
2019-04-29T21:10:51.775Z,11.95
2019-04-29T21:13:43.992Z,12.78
2019-04-29T21:16:15.516Z,14.33
2019-04-29T21:21:18.711Z,13.98
2019-04-29T21:23:48.200Z,14.28
2019-04-29T21:26:18.786Z,14.53
2019-04-29T21:28:49.491Z,14.90
2019-04-29T21:31:20.126Z,15.13
2019-04-29T21:33:57.081Z,15.78
2019-04-29T21:36:30.662Z,16.23
2019-04-29T21:39:08.777Z,17.62
2019-04-29T21:41:42.423Z,16.60
2019-04-29T21:44:12.010Z,17.30
2019-04-29T21:46:41.578Z,17.85
2019-04-29T21:49:11.791Z,17.98
2019-04-29T21:52:05.680Z,19.00
2019-04-29T21:54:54.592Z,36.42
2019-04-29T21:57:25.679Z,20.40
2019-04-29T21:59:59.071Z,20.50
2019-04-29T22:02:28.631Z,20.35
2019-04-29T22:05:00.150Z,20.68
2019-04-29T22:07:47.362Z,21.02
2019-04-29T22:10:19.899Z,20.75
2019-04-29T22:12:51.010Z,20.20
2019-04-29T22:15:29.792Z,19.80
2019-04-29T22:17:56.385Z,20.30
2019-04-29T22:20:25.938Z,21.87
2019-04-29T22:22:57.156Z,21.82
2019-04-29T22:25:27.775Z,21.48
2019-04-29T22:28:02.421Z,22.27
2019-04-29T22:30:37.260Z,21.20
2019-04-29T22:33:15.318Z,20.95
2019-04-29T22:35:46.124Z,22.35
2019-04-29T22:38:16.700Z,22.85
2019-04-29T22:40:47.065Z,23.02
2019-04-29T22:43:25.357Z,21.97
2019-04-29T22:45:54.985Z,24.23
2019-04-29T22:48:27.724Z,24.07
2019-04-29T22:50:57.355Z,23.15
2019-04-29T22:53:26.793Z,23.83
2019-04-29T22:55:57.481Z,24.55
2019-04-29T22:58:30.656Z,23.77
2019-04-29T23:01:02.433Z,23.75
2019-04-29T23:03:37.550Z,24.00
2019-04-29T23:06:09.243Z,23.92
2019-04-29T23:08:42.302Z,25.20
2019-04-29T23:11:15.619Z,25.37
2019-04-29T23:13:52.807Z,25.23
2019-04-29T23:16:23.450Z,27.13
2019-04-29T23:18:55.138Z,26.73
2019-04-29T23:21:28.085Z,28.12
2019-04-29T23:24:17.524Z,27.27
2019-04-29T23:26:47.192Z,27.05
2019-04-29T23:29:16.801Z,27.22
2019-04-29T23:31:46.187Z,27.48
2019-04-29T23:34:15.678Z,28.25
2019-04-29T23:36:48.885Z,28.15
2019-04-29T23:39:18.029Z,27.07
2019-04-29T23:41:55.199Z,27.73
2019-04-29T23:44:25.701Z,27.82
2019-04-29T23:46:56.130Z,27.45
2019-04-29T23:49:26.647Z,27.73
2019-04-29T23:51:56.086Z,28.52
2019-04-29T23:54:26.221Z,29.52
2019-04-29T23:57:03.246Z,29.35
2019-04-29T23:59:35.229Z,28.80
